Time;durP1;ratioP1;P1;durP2;ratioP2;P2;SDS_P1;SDS_P2;PMS_P1;PMS_P2;Temp;Humidity;BMP_temperature;BMP_pressure;BME280_temperature;BME280_humidity;BME280_pressure;Samples;Min_cycle;Max_cycle;Signal;HPM_P1;HPM_P2
2022/08/20 00:00:43;;;;;;;12.27;10.97;;;20.50;99.90;;;;;;5012768;28;20484;-71
2022/08/20 00:03:14;;;;;;;12.07;10.87;;;20.50;99.90;;;;;;5011829;28;20824;-70
2022/08/20 00:05:44;;;;;;;13.63;11.90;;;20.50;99.90;;;;;;5011802;28;20420;-69
2022/08/20 00:08:11;;;;;;;12.37;11.17;;;20.40;99.90;;;;;;5012044;28;20478;-70
2022/08/20 00:10:41;;;;;;;14.13;11.40;;;20.40;99.90;;;;;;5012540;28;20483;-70
2022/08/20 00:13:10;;;;;;;13.40;11.87;;;20.40;99.90;;;;;;5012257;28;20423;-71
2022/08/20 00:15:38;;;;;;;15.23;13.13;;;20.40;99.90;;;;;;5011960;28;20402;-71
2022/08/20 00:18:06;;;;;;;14.73;11.90;;;20.40;99.90;;;;;;5012244;28;20407;-71
2022/08/20 00:20:37;;;;;;;15.17;12.80;;;20.40;99.90;;;;;;5011901;28;20415;-70
2022/08/20 00:23:02;;;;;;;15.70;14.07;;;20.30;99.90;;;;;;5011754;28;20446;-70
2022/08/20 00:25:28;;;;;;;16.70;14.30;;;20.30;99.90;;;;;;5011555;28;20464;-70
2022/08/20 00:27:55;;;;;;;23.33;16.20;;;20.20;99.90;;;;;;5012138;28;20250;-70
2022/08/20 00:30:21;;;;;;;18.13;13.70;;;20.20;99.90;;;;;;5011982;28;20546;-70
2022/08/20 00:32:53;;;;;;;16.47;13.87;;;20.30;99.90;;;;;;5011699;28;20441;-72
2022/08/20 00:35:22;;;;;;;14.90;13.30;;;20.30;99.90;;;;;;5011658;28;20494;-70
2022/08/20 00:37:48;;;;;;;19.43;14.77;;;20.20;99.90;;;;;;5011702;28;20959;-70
2022/08/20 00:40:17;;;;;;;16.50;13.80;;;20.20;99.90;;;;;;5011717;28;20407;-70
2022/08/20 00:42:46;;;;;;;17.17;13.00;;;20.30;99.90;;;;;;5012239;28;20430;-71
2022/08/20 00:45:12;;;;;;;18.17;13.37;;;20.30;99.90;;;;;;5011463;28;20400;-71
2022/08/20 00:47:47;;;;;;;17.23;14.37;;;20.30;99.90;;;;;;5011758;28;20476;-69
2022/08/20 00:50:17;;;;;;;16.20;13.20;;;20.30;99.90;;;;;;5011899;28;20470;-71
2022/08/20 00:52:47;;;;;;;14.07;12.17;;;20.30;99.90;;;;;;5011759;28;20842;-71
2022/08/20 00:55:14;;;;;;;16.93;13.90;;;20.30;99.90;;;;;;5012071;28;20417;-69
2022/08/20 00:57:47;;;;;;;17.20;13.90;;;20.20;99.90;;;;;;5012283;28;20446;-70
2022/08/20 01:00:17;;;;;;;16.03;12.80;;;20.30;99.90;;;;;;5011232;28;20578;-68
2022/08/20 01:02:45;;;;;;;15.57;12.40;;;20.30;99.90;;;;;;5011210;28;20880;-73
2022/08/20 01:05:11;;;;;;;18.00;12.40;;;20.30;99.90;;;;;;5010974;28;20434;-70
2022/08/20 01:07:37;;;;;;;15.53;13.23;;;20.30;99.90;;;;;;5010892;28;20492;-70
2022/08/20 01:10:11;;;;;;;14.87;13.20;;;20.40;99.90;;;;;;5011309;28;20170;-70
2022/08/20 01:12:41;;;;;;;13.70;12.20;;;20.30;99.90;;;;;;5011294;28;20458;-69
2022/08/20 01:15:12;;;;;;;16.87;13.30;;;20.30;99.90;;;;;;5010787;28;20701;-70
2022/08/20 01:17:44;;;;;;;15.93;13.90;;;20.40;99.90;;;;;;5011089;28;20410;-71
2022/08/20 01:20:14;;;;;;;16.70;12.80;;;20.40;99.90;;;;;;5008039;28;20548;-70
2022/08/20 01:25:54;;;;;;;15.30;12.33;;;20.30;99.90;;;;;;5011476;28;20409;-71
2022/08/20 01:28:25;;;;;;;14.33;12.10;;;20.30;99.90;;;;;;5011059;28;20450;-70
2022/08/20 01:30:51;;;;;;;18.60;12.13;;;20.30;99.90;;;;;;5011056;28;20861;-70
2022/08/20 01:33:19;;;;;;;14.70;13.17;;;20.30;99.90;;;;;;5011025;28;20572;-71
2022/08/20 01:35:45;;;;;;;16.40;12.20;;;20.30;99.90;;;;;;5010297;28;20409;-72
2022/08/20 01:38:11;;;;;;;15.30;12.30;;;20.30;99.90;;;;;;5010542;28;20414;-70
2022/08/20 01:41:09;;;;;;;14.57;12.07;;;20.30;99.90;;;;;;5010980;28;20175;-70
2022/08/20 01:43:35;;;;;;;16.77;12.63;;;20.30;99.90;;;;;;5010617;28;20507;-70
2022/08/20 01:46:00;;;;;;;14.80;11.97;;;20.30;99.90;;;;;;5001846;28;20423;-71
2022/08/20 01:48:27;;;;;;;15.30;12.33;;;20.30;99.90;;;;;;5006411;28;20202;-70
2022/08/20 01:51:03;;;;;;;15.33;12.40;;;20.20;99.90;;;;;;5005046;28;20167;-71
2022/08/20 01:53:40;;;;;;;14.73;11.00;;;20.30;99.90;;;;;;5005125;28;20520;-69
2022/08/20 01:56:15;;;;;;;13.00;10.93;;;20.20;99.90;;;;;;5010427;28;20748;-71
2022/08/20 01:58:51;;;;;;;17.33;11.70;;;20.30;99.90;;;;;;5010692;28;20408;-69
2022/08/20 02:01:33;;;;;;;11.57;9.97;;;20.20;99.90;;;;;;5010646;28;20868;-69
2022/08/20 02:04:01;;;;;;;13.77;11.50;;;20.20;99.90;;;;;;5007180;28;20881;-70
2022/08/20 02:06:29;;;;;;;12.07;10.90;;;20.20;99.90;;;;;;5010151;28;20480;-69
2022/08/20 02:08:57;;;;;;;11.80;9.70;;;20.10;99.90;;;;;;5010493;28;20834;-69
2022/08/20 02:11:23;;;;;;;12.30;10.77;;;20.10;99.90;;;;;;5014299;28;20415;-70
2022/08/20 02:13:51;;;;;;;13.50;10.40;;;20.00;99.90;;;;;;5014774;28;20756;-70
2022/08/20 02:16:20;;;;;;;11.57;8.30;;;20.00;99.90;;;;;;5014100;28;20612;-70
2022/08/20 02:18:47;;;;;;;9.83;8.83;;;19.90;99.90;;;;;;5014008;28;20518;-71
2022/08/20 02:21:13;;;;;;;10.57;8.97;;;19.90;99.90;;;;;;4996495;28;20877;-70
2022/08/20 02:23:38;;;;;;;9.13;8.10;;;19.80;99.90;;;;;;4993080;28;20485;-72
2022/08/20 02:26:06;;;;;;;8.40;7.60;;;19.80;99.90;;;;;;4994404;28;20179;-72
2022/08/20 02:28:31;;;;;;;8.40;7.60;;;19.80;99.90;;;;;;4994577;28;20233;-73
2022/08/20 02:30:59;;;;;;;10.40;8.03;;;19.70;99.90;;;;;;4994332;28;20421;-70
2022/08/20 02:33:25;;;;;;;10.23;9.17;;;19.70;99.90;;;;;;4994391;28;20201;-72
2022/08/20 02:35:55;;;;;;;10.10;9.10;;;19.70;99.90;;;;;;4994413;28;20437;-73
2022/08/20 02:38:20;;;;;;;11.80;9.73;;;19.70;99.90;;;;;;4994489;28;20212;-72
2022/08/20 02:40:47;;;;;;;12.67;10.53;;;19.60;99.90;;;;;;4994477;28;20414;-71
2022/08/20 02:43:14;;;;;;;12.60;11.13;;;19.60;99.90;;;;;;4994251;28;20280;-70
2022/08/20 02:45:42;;;;;;;13.20;10.77;;;19.60;99.90;;;;;;4993615;28;20413;-70
2022/08/20 02:48:19;;;;;;;12.40;10.43;;;19.50;99.90;;;;;;4994073;28;20469;-69
2022/08/20 02:50:45;;;;;;;14.10;12.70;;;19.60;99.90;;;;;;4993868;28;20511;-70
2022/08/20 02:53:11;;;;;;;13.43;11.30;;;19.50;99.90;;;;;;4994133;28;20438;-70
2022/08/20 02:55:37;;;;;;;13.60;10.97;;;19.50;99.90;;;;;;4993687;28;20402;-70
2022/08/20 02:58:02;;;;;;;13.07;10.63;;;19.50;99.90;;;;;;4993920;28;20179;-70
2022/08/20 03:00:30;;;;;;;14.63;11.93;;;19.60;99.90;;;;;;4994071;28;20178;-71
2022/08/20 03:02:55;;;;;;;16.43;12.53;;;19.60;99.90;;;;;;4993994;28;20696;-70
2022/08/20 03:05:21;;;;;;;15.83;12.23;;;19.60;99.90;;;;;;4993454;28;20429;-71
2022/08/20 03:07:52;;;;;;;17.70;12.00;;;19.60;99.90;;;;;;4993902;28;20202;-70
2022/08/20 03:10:22;;;;;;;20.47;12.20;;;19.60;99.90;;;;;;4994052;28;20209;-70
2022/08/20 03:12:48;;;;;;;14.80;12.80;;;19.60;99.90;;;;;;4993761;28;20991;-71
2022/08/20 03:15:13;;;;;;;15.80;13.30;;;19.60;99.90;;;;;;4993308;28;20493;-70
2022/08/20 03:17:39;;;;;;;17.90;14.30;;;19.60;99.90;;;;;;4993770;28;20182;-70
2022/08/20 03:20:06;;;;;;;17.90;12.50;;;19.60;99.90;;;;;;4993168;28;20228;-70
2022/08/20 03:22:32;;;;;;;23.63;15.30;;;19.60;99.90;;;;;;4993555;28;20221;-70
2022/08/20 03:24:58;;;;;;;24.77;16.33;;;19.60;99.90;;;;;;4993126;28;20817;-70
2022/08/20 03:27:23;;;;;;;21.07;14.27;;;19.60;99.90;;;;;;4993457;28;20173;-70
2022/08/20 03:29:49;;;;;;;24.87;15.47;;;19.60;99.90;;;;;;4993274;28;20301;-70
2022/08/20 03:32:15;;;;;;;23.53;16.20;;;19.60;99.90;;;;;;4993350;28;20191;-70
2022/08/20 03:34:40;;;;;;;21.20;15.30;;;19.60;99.90;;;;;;4993023;28;20173;-70
2022/08/20 03:37:06;;;;;;;25.07;16.73;;;19.50;99.90;;;;;;4991622;28;20181;-72
2022/08/20 03:39:31;;;;;;;19.50;15.23;;;19.50;99.90;;;;;;4993332;28;20299;-70
2022/08/20 03:41:57;;;;;;;22.20;17.40;;;19.50;99.90;;;;;;4993335;28;20202;-69
2022/08/20 03:44:23;;;;;;;24.60;15.47;;;19.50;99.90;;;;;;4993409;28;20253;-70
2022/08/20 03:46:48;;;;;;;22.60;17.20;;;19.50;99.90;;;;;;4993083;28;20172;-70
2022/08/20 03:49:15;;;;;;;23.03;15.50;;;19.50;99.90;;;;;;4993065;28;20201;-70
2022/08/20 03:51:41;;;;;;;27.50;18.10;;;19.50;99.90;;;;;;4992739;28;20165;-70
2022/08/20 03:54:06;;;;;;;28.27;18.67;;;19.50;99.90;;;;;;4992926;28;20516;-69
2022/08/20 03:56:32;;;;;;;25.67;16.30;;;19.50;99.90;;;;;;4992734;28;20182;-70
2022/08/20 03:58:57;;;;;;;27.90;18.03;;;19.60;99.90;;;;;;4993156;28;20645;-71
2022/08/20 04:01:23;;;;;;;25.13;17.63;;;19.50;99.90;;;;;;4993062;28;20261;-70
2022/08/20 04:03:49;;;;;;;26.03;17.63;;;19.50;99.90;;;;;;4992690;28;20197;-71
2022/08/20 04:06:15;;;;;;;28.57;19.10;;;19.60;99.90;;;;;;4993050;28;20541;-70
2022/08/20 04:08:41;;;;;;;27.27;19.80;;;19.50;99.90;;;;;;4993915;28;20210;-70
2022/08/20 04:11:06;;;;;;;32.47;20.03;;;19.50;99.90;;;;;;4993563;28;20849;-70
2022/08/20 04:13:32;;;;;;;24.70;17.33;;;19.50;99.90;;;;;;4992351;28;20476;-70
2022/08/20 04:16:02;;;;;;;28.20;18.50;;;19.50;99.90;;;;;;4992011;28;20237;-70
2022/08/20 04:18:28;;;;;;;27.23;17.87;;;19.50;99.90;;;;;;4992272;28;20704;-72
2022/08/20 04:20:54;;;;;;;26.30;16.73;;;19.50;99.90;;;;;;4992602;28;20537;-71
2022/08/20 04:23:20;;;;;;;24.40;19.07;;;19.50;99.90;;;;;;4992385;28;20440;-71
2022/08/20 04:25:47;;;;;;;26.60;17.60;;;19.60;99.90;;;;;;4991913;28;20174;-71
2022/08/20 04:28:25;;;;;;;25.63;17.53;;;19.60;99.90;;;;;;4992074;28;20510;-70
2022/08/20 04:30:51;;;;;;;26.43;18.67;;;19.60;99.90;;;;;;4991989;28;20414;-70
2022/08/20 04:33:18;;;;;;;25.90;18.90;;;19.60;99.90;;;;;;4991205;28;20438;-69
2022/08/20 04:35:44;;;;;;;27.60;19.80;;;19.60;99.90;;;;;;4991490;28;20495;-70
2022/08/20 04:38:14;;;;;;;23.20;17.20;;;19.60;99.90;;;;;;4992092;28;20417;-70
2022/08/20 04:40:52;;;;;;;23.87;17.40;;;19.60;99.90;;;;;;4991857;28;20412;-70
2022/08/20 04:43:24;;;;;;;24.43;17.80;;;19.60;99.90;;;;;;4992214;28;20427;-70
2022/08/20 04:45:53;;;;;;;23.10;17.43;;;19.60;99.90;;;;;;4991709;28;20779;-70
2022/08/20 04:48:22;;;;;;;20.20;15.70;;;19.60;99.90;;;;;;4991636;28;20468;-69
2022/08/20 04:50:49;;;;;;;25.30;18.30;;;19.70;99.90;;;;;;4991636;28;20791;-70
2022/08/20 04:53:16;;;;;;;25.97;19.07;;;19.70;99.90;;;;;;4991733;28;20514;-70
2022/08/20 04:55:43;;;;;;;23.10;17.07;;;19.70;99.90;;;;;;4991430;28;20406;-70
2022/08/20 04:58:13;;;;;;;22.80;16.60;;;19.70;99.90;;;;;;4991726;28;20406;-70
2022/08/20 05:00:39;;;;;;;24.27;18.07;;;19.70;99.90;;;;;;4991456;28;20411;-70
2022/08/20 05:03:08;;;;;;;21.83;17.20;;;19.70;99.90;;;;;;5010199;23;20447;-73
2022/08/20 05:05:34;;;;;;;27.70;17.60;;;19.70;99.90;;;;;;5038539;28;20417;-73
2022/08/20 05:08:00;;;;;;;21.73;16.90;;;19.80;99.90;;;;;;5038507;28;20444;-73
2022/08/20 05:10:26;;;;;;;22.50;15.97;;;19.80;99.90;;;;;;5037274;28;20413;-73
2022/08/20 05:12:52;;;;;;;18.23;15.17;;;19.80;99.90;;;;;;5033039;28;20491;-73
2022/08/20 05:15:18;;;;;;;19.20;14.97;;;19.80;99.90;;;;;;5034293;28;20440;-73
2022/08/20 05:17:44;;;;;;;20.57;16.30;;;19.80;99.90;;;;;;5035510;28;20605;-74
2022/08/20 05:20:15;;;;;;;23.87;15.83;;;19.80;99.90;;;;;;5017487;28;20408;-73
2022/08/20 05:22:41;;;;;;;21.20;17.00;;;19.80;99.90;;;;;;5033216;28;20410;-73
2022/08/20 05:25:07;;;;;;;25.73;16.30;;;19.70;99.90;;;;;;5031682;28;20427;-73
2022/08/20 05:27:32;;;;;;;19.10;16.57;;;19.80;99.90;;;;;;5032481;28;20459;-73
2022/08/20 05:30:06;;;;;;;20.80;15.50;;;19.70;99.90;;;;;;5032144;28;20407;-73
2022/08/20 05:32:34;;;;;;;20.00;15.30;;;19.80;99.90;;;;;;5032205;28;20543;-72
2022/08/20 05:35:00;;;;;;;21.37;16.60;;;19.80;99.90;;;;;;5031900;28;20514;-73
2022/08/20 05:37:26;;;;;;;20.20;16.40;;;19.80;99.90;;;;;;5032079;28;20412;-73
2022/08/20 05:39:52;;;;;;;19.93;16.40;;;19.80;99.90;;;;;;5032294;28;20415;-73
2022/08/20 05:42:18;;;;;;;18.57;14.03;;;19.80;99.90;;;;;;5033083;28;20469;-73
2022/08/20 05:44:45;;;;;;;19.37;15.77;;;19.80;99.90;;;;;;5034863;28;20190;-73
2022/08/20 05:47:11;;;;;;;21.40;16.17;;;19.80;99.90;;;;;;5035919;28;20177;-73
2022/08/20 05:49:37;;;;;;;20.50;16.47;;;19.90;99.90;;;;;;5036353;28;20443;-73
2022/08/20 05:52:04;;;;;;;19.00;15.83;;;19.90;99.90;;;;;;5036203;28;20435;-73
2022/08/20 05:54:29;;;;;;;19.50;16.67;;;20.00;99.90;;;;;;5035976;28;20848;-73
2022/08/20 05:56:56;;;;;;;17.30;15.43;;;20.00;99.90;;;;;;5034476;28;20485;-74
2022/08/20 05:59:23;;;;;;;20.07;15.40;;;20.10;99.90;;;;;;5036180;28;20201;-73
2022/08/20 06:01:48;;;;;;;18.43;15.80;;;20.10;99.90;;;;;;5035826;28;20417;-73
2022/08/20 06:04:23;;;;;;;22.60;16.03;;;20.10;99.90;;;;;;5035741;28;20449;-73
2022/08/20 06:06:51;;;;;;;21.27;16.03;;;20.10;99.90;;;;;;5035637;28;20178;-73
2022/08/20 06:09:21;;;;;;;18.20;14.00;;;20.10;99.90;;;;;;5036100;28;20851;-73
2022/08/20 06:11:47;;;;;;;20.37;15.90;;;20.10;99.90;;;;;;5036291;28;20746;-74
2022/08/20 06:14:15;;;;;;;20.87;18.57;;;20.10;99.90;;;;;;5035893;28;20421;-73
2022/08/20 06:16:41;;;;;;;20.97;15.60;;;20.20;99.90;;;;;;5035678;28;20171;-73
2022/08/20 06:19:06;;;;;;;17.27;14.30;;;20.10;99.90;;;;;;5036012;28;20417;-74
2022/08/20 06:21:32;;;;;;;20.43;16.10;;;20.10;99.90;;;;;;5035989;28;20172;-75
2022/08/20 06:23:58;;;;;;;16.60;14.50;;;20.10;99.90;;;;;;5035883;28;20193;-74
2022/08/20 06:26:24;;;;;;;17.33;15.10;;;20.10;99.90;;;;;;5035430;28;20164;-74
2022/08/20 06:28:49;;;;;;;17.53;15.43;;;20.10;99.90;;;;;;5035563;28;20232;-74
2022/08/20 06:31:15;;;;;;;17.93;15.53;;;20.00;99.90;;;;;;5035682;28;20406;-74
2022/08/20 06:33:41;;;;;;;17.70;14.77;;;20.20;99.90;;;;;;5037082;28;20247;-74
2022/08/20 06:36:09;;;;;;;20.57;16.33;;;20.20;99.90;;;;;;5037304;28;20183;-74
2022/08/20 06:38:35;;;;;;;18.20;15.50;;;20.30;99.90;;;;;;5037506;28;21030;-74
2022/08/20 06:41:01;;;;;;;20.10;16.20;;;20.30;99.90;;;;;;5036402;28;20438;-73
2022/08/20 06:43:27;;;;;;;19.50;15.87;;;20.30;99.90;;;;;;5036874;28;20566;-75
2022/08/20 06:45:56;;;;;;;18.60;15.43;;;20.20;99.90;;;;;;5039077;28;20495;-74
2022/08/20 06:48:22;;;;;;;22.03;15.67;;;20.20;99.90;;;;;;5019497;28;20454;-75
2022/08/20 06:50:48;;;;;;;18.03;15.17;;;20.20;99.90;;;;;;5035564;28;20403;-74
2022/08/20 06:53:17;;;;;;;18.50;16.53;;;20.20;99.90;;;;;;5035692;28;21015;-73
2022/08/20 06:55:47;;;;;;;21.17;16.30;;;20.30;99.90;;;;;;5034712;28;20401;-73
2022/08/20 06:58:13;;;;;;;18.17;16.07;;;20.30;99.90;;;;;;5037972;28;20783;-75
2022/08/20 07:00:41;;;;;;;17.60;15.23;;;20.40;99.90;;;;;;5038031;28;20508;-75
2022/08/20 07:03:07;;;;;;;16.70;13.87;;;20.50;99.90;;;;;;5035339;28;20425;-72
2022/08/20 07:05:36;;;;;;;20.60;16.77;;;20.40;99.90;;;;;;5034653;28;20406;-73
2022/08/20 07:08:02;;;;;;;20.93;17.03;;;20.40;99.90;;;;;;5035089;28;20449;-73
2022/08/20 07:10:29;;;;;;;21.00;17.50;;;20.40;99.90;;;;;;5034432;28;20467;-73
2022/08/20 07:12:55;;;;;;;19.33;16.27;;;20.30;99.90;;;;;;5034590;28;20537;-74
2022/08/20 07:15:24;;;;;;;18.30;16.30;;;20.30;99.90;;;;;;5034020;28;20417;-74
2022/08/20 07:17:54;;;;;;;19.70;15.37;;;20.30;99.90;;;;;;5034671;28;20411;-74
2022/08/20 07:20:20;;;;;;;20.17;16.70;;;20.30;99.90;;;;;;5034484;28;20762;-75
2022/08/20 07:22:46;;;;;;;21.37;17.30;;;20.20;99.90;;;;;;5034173;28;20420;-76
2022/08/20 07:25:13;;;;;;;21.20;16.67;;;20.20;99.90;;;;;;5033472;28;20163;-73
2022/08/20 07:27:40;;;;;;;19.97;15.40;;;20.20;99.90;;;;;;5033564;28;20245;-74
2022/08/20 07:32:52;;;;;;;20.90;16.50;;;20.20;99.90;;;;;;5033404;28;20936;-73
2022/08/20 07:35:18;;;;;;;22.90;18.00;;;20.10;99.90;;;;;;5032977;28;20441;-73
2022/08/20 07:37:48;;;;;;;19.97;16.67;;;20.20;99.90;;;;;;5033628;28;20179;-74
2022/08/20 07:40:19;;;;;;;18.60;14.70;;;20.10;99.90;;;;;;5033260;28;20179;-73
2022/08/20 07:42:46;;;;;;;23.00;16.73;;;20.10;99.90;;;;;;5033117;28;20744;-74
2022/08/20 07:45:14;;;;;;;25.47;17.03;;;20.20;99.90;;;;;;5032694;28;20418;-74
2022/08/20 07:47:41;;;;;;;25.70;19.37;;;20.20;99.90;;;;;;5015395;28;20423;-75
2022/08/20 07:50:10;;;;;;;24.63;17.87;;;20.20;99.90;;;;;;5032988;28;20416;-74
2022/08/20 07:52:36;;;;;;;20.63;16.00;;;20.20;99.90;;;;;;5033271;28;20420;-74
2022/08/20 07:55:05;;;;;;;24.07;18.77;;;20.20;99.90;;;;;;5032534;28;20926;-75
2022/08/20 07:57:31;;;;;;;23.13;17.20;;;20.20;99.90;;;;;;5032997;28;20181;-73
2022/08/20 07:59:57;;;;;;;23.33;17.43;;;20.20;99.90;;;;;;5033211;28;20405;-74
2022/08/20 08:02:24;;;;;;;19.03;15.43;;;20.20;99.90;;;;;;5033656;28;20450;-74
2022/08/20 08:04:50;;;;;;;20.73;17.67;;;20.20;99.90;;;;;;5032921;28;20435;-74
2022/08/20 08:07:15;;;;;;;25.73;18.63;;;20.30;99.90;;;;;;5032091;28;20504;-73
2022/08/20 08:09:43;;;;;;;20.80;15.90;;;20.30;99.90;;;;;;5032908;28;20248;-74
2022/08/20 08:12:11;;;;;;;26.23;18.33;;;20.30;99.90;;;;;;5032003;28;20174;-74
2022/08/20 08:14:38;;;;;;;24.23;18.60;;;20.40;99.90;;;;;;5031366;28;20444;-74
2022/08/20 08:17:05;;;;;;;21.43;16.77;;;20.40;99.90;;;;;;5032975;28;20826;-73
2022/08/20 08:19:37;;;;;;;23.80;18.20;;;20.50;99.90;;;;;;5033574;28;20547;-75
2022/08/20 08:22:06;;;;;;;24.90;17.40;;;20.40;99.90;;;;;;5033045;28;20403;-74
2022/08/20 08:24:32;;;;;;;26.60;20.43;;;20.50;99.90;;;;;;5033979;28;20775;-73
2022/08/20 08:26:58;;;;;;;23.10;19.80;;;20.60;99.90;;;;;;5033849;28;20406;-74
2022/08/20 08:29:23;;;;;;;23.07;18.57;;;20.70;99.90;;;;;;5033961;28;20460;-75
2022/08/20 08:31:49;;;;;;;25.00;18.57;;;20.70;99.90;;;;;;5035288;28;20177;-76
2022/08/20 08:34:15;;;;;;;23.00;18.53;;;20.70;99.90;;;;;;5038347;28;20194;-75
2022/08/20 08:36:42;;;;;;;23.37;17.70;;;20.70;99.90;;;;;;5033559;28;20513;-76
2022/08/20 08:39:08;;;;;;;28.07;19.97;;;20.70;99.90;;;;;;5032754;28;20414;-75
2022/08/20 08:41:48;;;;;;;21.40;18.70;;;20.70;99.90;;;;;;5032974;28;20483;-76
2022/08/20 08:44:22;;;;;;;22.17;17.10;;;20.80;99.90;;;;;;5032881;28;20473;-76
2022/08/20 08:46:57;;;;;;;26.47;19.53;;;21.00;99.90;;;;;;5034796;28;20483;-76
2022/08/20 08:49:26;;;;;;;27.57;19.57;;;21.00;99.90;;;;;;5034141;28;20446;-76
2022/08/20 08:52:04;;;;;;;24.67;19.40;;;21.10;99.90;;;;;;5035156;28;20413;-76
2022/08/20 08:54:31;;;;;;;28.03;20.00;;;21.20;99.90;;;;;;5035388;28;20793;-75
2022/08/20 08:56:58;;;;;;;23.07;19.90;;;21.00;99.90;;;;;;5034907;28;20426;-76
2022/08/20 08:59:27;;;;;;;19.30;17.17;;;21.00;99.90;;;;;;5035355;28;20785;-76
2022/08/20 09:01:55;;;;;;;29.37;18.43;;;21.10;99.90;;;;;;5032972;28;20428;-74
2022/08/20 09:04:22;;;;;;;23.27;18.33;;;21.10;99.90;;;;;;5031572;28;20564;-75
2022/08/20 09:06:53;;;;;;;24.40;18.83;;;21.20;99.90;;;;;;5034435;28;20423;-75
2022/08/20 09:09:29;;;;;;;24.20;16.80;;;21.30;99.90;;;;;;5035274;28;20814;-76
2022/08/20 09:12:03;;;;;;;19.50;16.57;;;21.50;99.90;;;;;;5030209;28;20460;-75
2022/08/20 09:14:28;;;;;;;27.90;18.80;;;21.50;99.90;;;;;;5031025;28;20427;-76
2022/08/20 09:16:54;;;;;;;22.63;18.40;;;21.60;99.90;;;;;;5030545;28;20412;-76
2022/08/20 09:19:20;;;;;;;21.37;16.50;;;21.60;99.90;;;;;;5032090;28;20261;-76
2022/08/20 09:21:46;;;;;;;21.40;18.50;;;21.50;99.90;;;;;;5030472;28;20195;-75
2022/08/20 09:24:12;;;;;;;28.10;18.00;;;21.60;99.90;;;;;;5031505;28;20445;-76
2022/08/20 09:26:37;;;;;;;23.83;17.07;;;21.60;99.90;;;;;;5031611;28;20227;-76
2022/08/20 09:29:03;;;;;;;22.83;16.60;;;21.60;99.90;;;;;;5032004;28;20629;-75
2022/08/20 09:31:28;;;;;;;27.27;17.23;;;21.70;99.90;;;;;;5031999;28;20174;-76
2022/08/20 09:33:54;;;;;;;20.80;16.80;;;21.70;99.90;;;;;;5031794;28;20194;-77
2022/08/20 09:36:20;;;;;;;24.63;17.37;;;21.70;99.90;;;;;;5031729;28;20695;-76
2022/08/20 09:38:45;;;;;;;25.20;18.93;;;21.70;99.90;;;;;;5038491;28;20205;-76
2022/08/20 09:41:11;;;;;;;23.27;16.77;;;21.60;99.90;;;;;;5052253;28;20189;-75
2022/08/20 09:43:37;;;;;;;22.50;16.90;;;21.80;99.90;;;;;;5050850;28;20323;-75
2022/08/20 09:46:02;;;;;;;22.17;17.97;;;21.90;99.90;;;;;;5031989;28;20178;-76
2022/08/20 09:48:28;;;;;;;22.07;17.37;;;21.60;99.90;;;;;;5032582;28;20201;-75
2022/08/20 09:50:53;;;;;;;24.10;18.20;;;21.40;99.90;;;;;;5030940;28;20174;-76
2022/08/20 09:53:20;;;;;;;22.10;17.90;;;21.40;99.90;;;;;;5032602;28;20213;-77
2022/08/20 09:55:50;;;;;;;21.27;18.03;;;21.50;99.90;;;;;;5032155;28;20183;-76
2022/08/20 09:58:24;;;;;;;19.47;16.33;;;21.60;99.90;;;;;;5014387;28;20436;-75
2022/08/20 10:00:50;;;;;;;23.40;18.43;;;21.60;99.90;;;;;;5032406;28;20469;-75
2022/08/20 10:03:16;;;;;;;20.10;16.53;;;21.70;99.90;;;;;;5032275;28;20456;-77
2022/08/20 10:05:42;;;;;;;19.30;16.93;;;21.70;99.90;;;;;;5031979;28;20253;-75
2022/08/20 10:08:10;;;;;;;21.80;17.10;;;21.80;99.90;;;;;;5032482;28;20231;-76
2022/08/20 10:10:35;;;;;;;23.53;17.97;;;22.00;99.90;;;;;;5048210;28;20190;-76
2022/08/20 10:13:01;;;;;;;19.40;15.53;;;22.00;99.90;;;;;;5041192;28;20413;-76
2022/08/20 10:15:28;;;;;;;20.30;16.90;;;22.00;99.90;;;;;;5035755;28;20189;-76
2022/08/20 10:17:55;;;;;;;21.50;15.77;;;22.10;99.90;;;;;;5035108;28;20226;-76
2022/08/20 10:20:22;;;;;;;16.93;14.40;;;22.30;99.90;;;;;;5039787;28;20418;-76
2022/08/20 10:22:47;;;;;;;30.43;22.47;;;22.10;99.90;;;;;;5043802;28;20459;-77
2022/08/20 10:25:13;;;;;;;18.50;15.17;;;22.40;99.90;;;;;;5033682;28;20879;-76
2022/08/20 10:27:38;;;;;;;17.80;14.73;;;22.50;99.90;;;;;;5032760;28;20175;-76
2022/08/20 10:30:05;;;;;;;16.60;13.90;;;22.50;99.90;;;;;;5032182;28;20238;-77
2022/08/20 10:32:31;;;;;;;14.60;12.13;;;22.70;99.90;;;;;;5017698;28;20606;-75
2022/08/20 10:34:56;;;;;;;17.97;16.07;;;22.50;99.90;;;;;;5034281;28;20428;-76
2022/08/20 10:37:24;;;;;;;18.20;14.90;;;22.60;99.90;;;;;;5017503;28;20654;-76
2022/08/20 10:39:50;;;;;;;13.97;11.00;;;22.80;99.90;;;;;;5034732;28;20509;-75
2022/08/20 10:42:16;;;;;;;14.83;12.47;;;22.40;99.90;;;;;;5032897;28;20417;-75
2022/08/20 10:44:42;;;;;;;15.00;13.50;;;22.40;99.90;;;;;;5034878;28;20424;-75
2022/08/20 10:47:22;;;;;;;14.67;11.67;;;22.60;99.90;;;;;;5035539;28;20249;-76
2022/08/20 10:49:50;;;;;;;13.53;12.00;;;22.50;99.90;;;;;;5034812;28;20229;-76
2022/08/20 10:52:16;;;;;;;11.93;10.70;;;22.60;99.90;;;;;;5035135;28;20404;-77
2022/08/20 10:54:42;;;;;;;16.03;11.50;;;22.60;99.90;;;;;;5035708;28;20487;-76
2022/08/20 10:57:13;;;;;;;15.43;12.03;;;22.90;99.90;;;;;;5037531;28;20438;-75
2022/08/20 10:59:41;;;;;;;16.23;9.93;;;22.90;99.90;;;;;;5021535;28;20179;-75
2022/08/20 11:02:07;;;;;;;12.70;10.67;;;22.80;99.90;;;;;;5039650;28;20411;-76
2022/08/20 11:04:34;;;;;;;10.00;9.00;;;23.00;99.90;;;;;;5071522;22;20486;-71
2022/08/20 11:07:20;;;;;;;11.33;9.70;;;23.20;99.90;;;;;;5052878;28;20413;-71
2022/08/20 11:09:47;;;;;;;14.23;9.83;;;23.20;99.90;;;;;;5052936;28;20486;-71
2022/08/20 11:12:14;;;;;;;14.27;11.20;;;23.30;99.90;;;;;;5053044;28;20465;-70
2022/08/20 11:14:39;;;;;;;14.80;10.97;;;23.30;99.90;;;;;;5052658;28;20428;-72
2022/08/20 11:17:05;;;;;;;8.20;7.10;;;23.40;99.90;;;;;;5034762;28;20953;-71
2022/08/20 11:19:31;;;;;;;11.13;9.83;;;23.30;99.90;;;;;;5052764;28;20624;-71
2022/08/20 11:21:56;;;;;;;15.00;8.37;;;23.00;99.90;;;;;;5052685;28;20192;-71
2022/08/20 11:24:22;;;;;;;8.50;7.50;;;23.10;99.90;;;;;;5052576;28;20638;-71
2022/08/20 11:26:49;;;;;;;11.23;8.43;;;23.10;99.90;;;;;;5052562;28;20175;-71
2022/08/20 11:29:16;;;;;;;8.27;7.10;;;23.00;99.90;;;;;;5052645;28;20224;-72
2022/08/20 11:31:42;;;;;;;9.93;8.50;;;23.20;99.90;;;;;;5052599;28;20802;-72
2022/08/20 11:34:07;;;;;;;9.07;7.40;;;23.30;99.90;;;;;;5052346;28;20481;-72
2022/08/20 11:36:33;;;;;;;8.83;7.03;;;23.10;99.90;;;;;;5052203;28;20487;-72
2022/08/20 11:38:59;;;;;;;8.20;7.27;;;23.10;99.90;;;;;;5052816;28;20299;-72
2022/08/20 11:41:24;;;;;;;8.60;7.40;;;23.30;99.90;;;;;;5052416;28;20469;-71
2022/08/20 11:43:50;;;;;;;5.93;5.33;;;23.40;99.90;;;;;;5052699;28;20200;-72
2022/08/20 11:46:15;;;;;;;7.10;6.40;;;23.50;99.90;;;;;;5051817;28;20208;-72
2022/08/20 11:48:41;;;;;;;10.17;6.73;;;23.10;99.90;;;;;;5052000;28;20195;-72
2022/08/20 11:51:07;;;;;;;7.50;6.13;;;23.00;99.90;;;;;;5052162;28;20779;-72
2022/08/20 11:53:32;;;;;;;6.47;5.87;;;23.00;99.90;;;;;;5052774;28;20159;-72
2022/08/20 11:55:58;;;;;;;6.97;6.27;;;23.00;99.90;;;;;;5052242;28;20258;-72
2022/08/20 11:58:24;;;;;;;4.37;4.00;;;22.90;99.90;;;;;;5052234;28;20176;-71
2022/08/20 12:00:49;;;;;;;6.23;5.73;;;23.10;99.90;;;;;;5052161;28;20416;-72
2022/08/20 12:03:15;;;;;;;7.90;5.33;;;23.20;99.90;;;;;;5052964;28;20238;-72
2022/08/20 12:05:43;;;;;;;5.60;5.10;;;23.20;99.90;;;;;;5051879;28;20202;-73
2022/08/20 12:08:10;;;;;;;6.43;5.53;;;23.00;99.90;;;;;;5052065;28;20197;-72
2022/08/20 12:10:37;;;;;;;5.80;5.17;;;23.00;99.90;;;;;;5052037;28;20410;-72
2022/08/20 12:13:03;;;;;;;10.17;6.17;;;22.90;99.90;;;;;;5051869;28;20400;-72
2022/08/20 12:15:28;;;;;;;7.80;6.70;;;22.90;99.90;;;;;;5033738;28;20428;-72
2022/08/20 12:17:54;;;;;;;8.73;5.90;;;22.90;99.90;;;;;;5033759;28;20785;-72
2022/08/20 12:20:21;;;;;;;6.43;5.83;;;22.80;99.90;;;;;;5051789;28;20192;-72
2022/08/20 12:22:47;;;;;;;5.67;5.20;;;22.70;99.90;;;;;;5051840;28;20486;-72
2022/08/20 12:25:13;;;;;;;6.10;5.50;;;22.50;99.90;;;;;;5051601;28;20503;-72
2022/08/20 12:27:40;;;;;;;5.60;5.10;;;22.40;99.90;;;;;;5051963;28;20707;-72
2022/08/20 12:30:10;;;;;;;7.40;5.93;;;22.60;99.90;;;;;;5051912;28;20546;-72
2022/08/20 12:32:36;;;;;;;5.77;5.17;;;22.50;99.90;;;;;;5051466;28;20922;-72
2022/08/20 12:35:04;;;;;;;5.73;5.20;;;22.80;99.90;;;;;;5051027;28;20425;-72
2022/08/20 12:37:31;;;;;;;6.10;5.60;;;22.60;99.90;;;;;;5051354;28;20518;-71